Time;durP1;ratioP1;P1;durP2;ratioP2;P2;SDS_P1;SDS_P2;PMS_P1;PMS_P2;Temp;Humidity;BMP_temperature;BMP_pressure;BME280_temperature;BME280_humidity;BME280_pressure;Samples;Min_cycle;Max_cycle;Signal;HPM_P1;HPM_P2
2021/08/19 00:03:15;;;;;;;6.43;5.82;;;29.00;41.30;;;;;;4763079;54;21021;-32
2021/08/19 00:08:16;;;;;;;7.22;5.85;;;29.00;40.70;;;;;;4745550;54;21201;-38
2021/08/19 00:13:16;;;;;;;6.72;6.03;;;29.00;40.70;;;;;;4807098;54;21060;-31
2021/08/19 00:18:17;;;;;;;6.45;5.85;;;29.00;40.80;;;;;;4790289;54;21016;-33
2021/08/19 00:23:18;;;;;;;6.40;5.30;;;29.00;40.60;;;;;;4795607;54;21012;-31
2021/08/19 00:28:19;;;;;;;6.60;5.62;;;29.00;41.30;;;;;;4753131;54;21021;-26
2021/08/19 00:33:20;;;;;;;6.35;5.75;;;29.00;40.80;;;;;;4766548;54;21016;-27
2021/08/19 00:38:22;;;;;;;6.82;6.15;;;29.00;40.70;;;;;;4743509;54;21558;-23
2021/08/19 00:43:23;;;;;;;5.97;5.37;;;29.00;40.90;;;;;;4764527;54;21053;-31
2021/08/19 00:48:24;;;;;;;6.05;5.37;;;29.00;40.80;;;;;;4757297;54;21077;-29
2021/08/19 00:53:25;;;;;;;6.35;5.68;;;29.00;40.70;;;;;;4765403;54;21013;-30
2021/08/19 00:58:25;;;;;;;6.22;5.53;;;29.00;40.90;;;;;;4749702;54;21057;-27
2021/08/19 01:03:26;;;;;;;6.65;5.72;;;29.00;41.20;;;;;;4748705;54;21021;-26
2021/08/19 01:08:27;;;;;;;6.12;5.30;;;29.00;40.90;;;;;;4782732;54;21063;-26
2021/08/19 01:13:33;;;;;;;5.62;5.12;;;29.00;40.90;;;;;;4744342;58;20985;-22
2021/08/19 01:18:42;;;;;;;6.35;5.22;;;29.00;40.80;;;;;;4752675;55;21104;-33
2021/08/19 01:23:43;;;;;;;5.80;5.20;;;29.00;41.00;;;;;;4763117;54;21085;-34
2021/08/19 01:28:45;;;;;;;5.80;5.20;;;29.00;40.90;;;;;;4748684;55;21009;-33
2021/08/19 01:33:50;;;;;;;6.35;5.43;;;29.00;41.00;;;;;;4769436;54;21032;-33
2021/08/19 01:38:52;;;;;;;5.55;5.03;;;29.00;41.10;;;;;;4764141;54;21443;-30
2021/08/19 01:43:53;;;;;;;6.50;5.57;;;29.00;41.00;;;;;;4764189;54;21116;-32
2021/08/19 01:48:54;;;;;;;5.47;4.97;;;29.00;41.10;;;;;;4762958;54;21060;-29
2021/08/19 01:53:55;;;;;;;5.37;4.87;;;28.90;41.00;;;;;;4778373;54;20981;-29
2021/08/19 01:58:56;;;;;;;5.45;4.75;;;28.90;41.10;;;;;;4764037;54;21528;-30
2021/08/19 02:03:57;;;;;;;5.47;4.90;;;28.90;41.10;;;;;;4742713;58;21033;-31
2021/08/19 02:08:58;;;;;;;5.87;4.93;;;28.90;40.90;;;;;;4763261;54;21704;-33
2021/08/19 02:13:59;;;;;;;5.28;4.60;;;28.90;41.00;;;;;;4764357;54;21077;-32
2021/08/19 02:19:00;;;;;;;5.32;4.82;;;28.90;41.00;;;;;;4764699;54;21016;-26
2021/08/19 02:24:01;;;;;;;5.32;4.82;;;28.90;41.00;;;;;;4743510;58;21005;-30
2021/08/19 02:29:01;;;;;;;4.93;4.40;;;28.90;41.10;;;;;;4764186;54;21124;-30
2021/08/19 02:34:02;;;;;;;5.10;4.60;;;28.90;41.10;;;;;;4760926;54;21048;-27
2021/08/19 02:39:03;;;;;;;5.07;4.57;;;28.90;41.10;;;;;;4755222;54;20997;-25
2021/08/19 02:44:04;;;;;;;5.20;4.70;;;28.90;41.10;;;;;;4748033;54;21471;-25
2021/08/19 02:49:05;;;;;;;4.87;4.40;;;28.90;41.20;;;;;;4763403;54;21048;-24
2021/08/19 02:54:06;;;;;;;5.35;4.85;;;28.90;41.20;;;;;;4743661;58;21000;-24
2021/08/19 02:59:07;;;;;;;5.37;4.87;;;28.90;41.20;;;;;;4816021;54;21491;-29
2021/08/19 03:04:07;;;;;;;5.18;4.68;;;28.90;41.30;;;;;;4764895;54;21141;-35
2021/08/19 03:09:08;;;;;;;4.50;4.10;;;28.90;41.20;;;;;;4769278;54;21076;-32
2021/08/19 03:14:09;;;;;;;4.95;4.43;;;28.90;41.30;;;;;;4744774;54;21001;-26
2021/08/19 03:19:10;;;;;;;5.45;4.68;;;28.80;41.20;;;;;;4743457;58;21037;-26
2021/08/19 03:24:11;;;;;;;4.87;4.40;;;28.80;41.10;;;;;;4792427;54;20984;-25
2021/08/19 03:29:12;;;;;;;4.93;4.45;;;28.80;41.10;;;;;;4752481;54;21052;-27
2021/08/19 03:34:13;;;;;;;5.03;4.30;;;28.80;41.30;;;;;;4750254;54;21000;-21
2021/08/19 03:39:14;;;;;;;4.60;4.20;;;28.80;41.20;;;;;;4766622;54;21021;-21
2021/08/19 03:44:16;;;;;;;4.50;4.10;;;28.80;41.20;;;;;;4763573;54;21077;-24
2021/08/19 03:49:16;;;;;;;5.10;4.45;;;28.80;41.20;;;;;;4748821;54;21538;-25
2021/08/19 03:54:17;;;;;;;5.20;4.70;;;28.80;41.30;;;;;;4748661;54;21028;-24
2021/08/19 03:59:18;;;;;;;4.75;4.35;;;28.80;41.30;;;;;;4775641;54;21012;-20
2021/08/19 04:04:20;;;;;;;5.25;4.68;;;28.80;41.10;;;;;;4751105;54;21514;-28
2021/08/19 04:09:21;;;;;;;5.28;4.30;;;28.80;41.20;;;;;;4764596;54;20997;-29
2021/08/19 04:14:22;;;;;;;5.03;4.53;;;28.80;41.20;;;;;;4752783;54;21458;-27
2021/08/19 04:19:22;;;;;;;5.12;4.62;;;28.70;41.10;;;;;;4749363;54;21001;-21
2021/08/19 04:24:26;;;;;;;4.95;4.20;;;28.70;41.20;;;;;;4755389;54;21014;-22
2021/08/19 04:29:27;;;;;;;4.75;4.20;;;28.80;41.20;;;;;;4762319;54;21012;-30
2021/08/19 04:34:28;;;;;;;6.50;4.55;;;28.70;41.90;;;;;;4770470;54;21447;-30
2021/08/19 04:39:29;;;;;;;5.22;4.50;;;28.70;41.30;;;;;;4763148;54;21061;-31
2021/08/19 04:44:30;;;;;;;5.55;4.60;;;28.70;41.30;;;;;;4743841;58;20996;-32
2021/08/19 04:49:31;;;;;;;5.20;4.55;;;28.70;41.20;;;;;;4761697;54;21032;-29
2021/08/19 04:54:31;;;;;;;6.18;4.70;;;28.70;41.10;;;;;;4760103;54;21040;-29
2021/08/19 04:59:32;;;;;;;5.28;4.40;;;28.70;41.20;;;;;;4755710;54;21092;-29
2021/08/19 05:04:33;;;;;;;6.07;4.37;;;28.70;41.20;;;;;;4747407;54;21486;-23
2021/08/19 05:09:34;;;;;;;4.53;4.12;;;28.60;41.20;;;;;;4766622;54;21105;-24
2021/08/19 05:14:39;;;;;;;5.82;4.32;;;28.60;41.10;;;;;;4747982;54;21056;-20
2021/08/19 05:19:40;;;;;;;5.12;4.62;;;28.60;41.10;;;;;;4743717;58;21831;-30
2021/08/19 05:24:41;;;;;;;7.18;4.90;;;28.60;41.10;;;;;;4758597;54;21041;-33
2021/08/19 05:29:41;;;;;;;6.97;4.60;;;28.60;41.10;;;;;;4753018;54;21068;-28
2021/08/19 05:34:42;;;;;;;5.60;4.95;;;28.60;41.00;;;;;;4763215;54;21073;-31
2021/08/19 05:39:43;;;;;;;5.90;4.72;;;28.60;41.00;;;;;;4760302;54;21001;-31
2021/08/19 05:44:44;;;;;;;6.00;4.90;;;28.60;40.90;;;;;;4752302;54;21565;-31
2021/08/19 05:49:46;;;;;;;4.90;4.40;;;28.60;41.00;;;;;;4778405;54;21361;-30
2021/08/19 05:54:46;;;;;;;6.12;4.80;;;28.50;41.20;;;;;;4747123;54;21594;-30
2021/08/19 05:59:47;;;;;;;6.00;5.00;;;28.60;41.10;;;;;;4778815;54;21018;-33
2021/08/19 06:04:48;;;;;;;5.78;5.00;;;28.50;41.60;;;;;;4746585;55;21009;-27
2021/08/19 06:09:49;;;;;;;5.28;4.72;;;28.50;41.00;;;;;;4763778;54;21057;-28
2021/08/19 06:14:52;;;;;;;5.20;4.70;;;28.50;41.00;;;;;;4752933;54;21459;-30
2021/08/19 06:19:53;;;;;;;5.97;4.87;;;28.50;40.90;;;;;;4770431;54;22327;-25
2021/08/19 06:24:56;;;;;;;5.80;4.95;;;28.50;40.90;;;;;;4757894;54;21104;-27
2021/08/19 06:29:56;;;;;;;5.72;5.12;;;28.50;40.90;;;;;;4802535;54;21004;-31
2021/08/19 06:34:57;;;;;;;5.30;4.80;;;28.50;41.00;;;;;;4804170;54;21081;-27
2021/08/19 06:39:58;;;;;;;6.32;5.15;;;28.50;41.00;;;;;;4743772;58;21569;-33
2021/08/19 06:44:59;;;;;;;5.03;4.57;;;28.50;40.90;;;;;;4760015;54;21096;-32
2021/08/19 06:50:00;;;;;;;6.00;5.20;;;28.50;40.90;;;;;;4743102;58;21024;-33
2021/08/19 06:55:00;;;;;;;6.57;5.65;;;28.50;41.00;;;;;;4743728;54;22092;-31
2021/08/19 07:00:04;;;;;;;10.02;6.65;;;28.50;41.70;;;;;;4749628;54;21107;-25
2021/08/19 07:05:07;;;;;;;6.82;6.12;;;28.50;41.00;;;;;;4779850;54;21001;-33
2021/08/19 07:10:08;;;;;;;49.22;33.88;;;28.50;40.90;;;;;;4753172;54;21025;-27
2021/08/19 07:15:09;;;;;;;49.95;33.28;;;28.40;39.20;;;;;;4755287;54;21005;-24
2021/08/19 07:20:11;;;;;;;54.90;36.03;;;28.20;38.70;;;;;;4775414;54;21118;-26
2021/08/19 07:25:18;;;;;;;44.88;31.87;;;28.10;38.80;;;;;;4754659;55;21037;-26
2021/08/19 07:30:19;;;;;;;37.05;30.77;;;28.00;38.70;;;;;;4755805;54;20996;-23
2021/08/19 07:35:20;;;;;;;34.92;24.98;;;28.00;38.80;;;;;;4744691;54;21140;-21
2021/08/19 07:40:26;;;;;;;56.55;36.97;;;27.90;38.70;;;;;;4768057;54;20997;-25
2021/08/19 07:45:29;;;;;;;;;;;27.90;38.80;;;;;;4751987;54;20985;-25
2021/08/19 07:50:30;;;;;;;54.67;35.95;;;27.90;38.90;;;;;;4756644;55;20342;-29
2021/08/19 07:55:31;;;;;;;38.67;26.12;;;27.90;39.10;;;;;;4742966;58;21029;-29
2021/08/19 08:00:34;;;;;;;31.92;23.87;;;27.90;39.30;;;;;;4744842;54;21606;-27
2021/08/19 08:05:36;;;;;;;35.28;25.40;;;27.80;39.40;;;;;;4746382;55;21073;-29
2021/08/19 08:10:38;;;;;;;33.70;24.10;;;27.90;39.70;;;;;;4750655;55;21562;-28
2021/08/19 08:15:40;;;;;;;37.60;24.48;;;28.00;39.70;;;;;;4767395;54;21522;-25
2021/08/19 08:20:41;;;;;;;47.20;33.88;;;28.10;39.60;;;;;;4753902;54;21534;-29
2021/08/19 08:25:42;;;;;;;45.55;33.28;;;28.10;38.80;;;;;;4742906;58;21148;-27
2021/08/19 08:30:45;;;;;;;51.72;37.95;;;28.00;38.80;;;;;;4742282;58;21318;-29
2021/08/19 08:35:47;;;;;;;39.97;26.98;;;28.10;38.70;;;;;;4785746;54;22578;-26
2021/08/19 08:40:50;;;;;;;49.05;30.70;;;28.00;38.30;;;;;;4742137;58;21017;-27
2021/08/19 08:45:54;;;;;;;53.95;36.25;;;28.10;38.20;;;;;;4768618;54;21084;-26
2021/08/19 08:50:56;;;;;;;81.22;60.63;;;28.10;38.40;;;;;;4752116;54;21589;-29
2021/08/19 08:55:57;;;;;;;86.03;63.83;;;28.00;38.00;;;;;;4764213;54;21460;-28
2021/08/19 09:00:58;;;;;;;86.63;63.05;;;28.10;37.90;;;;;;4752649;54;21021;-27
2021/08/19 09:05:59;;;;;;;68.22;46.83;;;28.10;37.80;;;;;;4761014;54;21009;-29
2021/08/19 09:11:02;;;;;;;86.82;50.03;;;28.10;37.60;;;;;;4763886;54;21084;-24
2021/08/19 09:16:18;;;;;;;43.13;29.25;;;28.20;38.00;;;;;;4767090;55;21076;-23
2021/08/19 09:21:22;;;;;;;43.45;26.17;;;28.20;37.60;;;;;;4770826;55;21008;-21
2021/08/19 09:26:27;;;;;;;43.53;27.58;;;28.20;37.60;;;;;;4749575;54;21025;-26
2021/08/19 09:31:36;;;;;;;36.67;22.77;;;28.20;37.70;;;;;;4761200;54;21017;-29
2021/08/19 09:36:38;;;;;;;28.25;19.62;;;28.20;37.90;;;;;;4749999;54;21546;-26
2021/08/19 09:57:05;;;;;;;81.53;57.00;;;28.20;37.20;;;;;;4767036;54;28652;-21
2021/08/19 10:02:07;;;;;;;62.72;46.35;;;28.10;38.00;;;;;;4815762;54;21126;-26
2021/08/19 10:07:08;;;;;;;56.17;41.85;;;28.10;37.90;;;;;;4813435;54;21090;-22
2021/08/19 10:12:09;;;;;;;45.85;34.60;;;28.10;37.70;;;;;;4801481;54;21112;-26
2021/08/19 10:17:10;;;;;;;43.67;33.42;;;28.10;37.60;;;;;;4823641;54;21098;-25
2021/08/19 10:22:18;;;;;;;45.97;32.47;;;28.20;37.60;;;;;;4823773;54;21527;-25
2021/08/19 10:27:25;;;;;;;36.75;27.67;;;28.20;37.60;;;;;;4816432;54;21066;-23
2021/08/19 10:32:39;;;;;;;41.85;32.42;;;28.20;37.40;;;;;;4832595;54;20983;-24
2021/08/19 10:38:23;;;;;;;46.80;36.10;;;28.20;37.40;;;;;;4835279;54;21055;-21
2021/08/19 10:44:07;;;;;;;44.35;36.10;;;28.20;37.30;;;;;;4786707;54;21134;-27
2021/08/19 10:49:27;;;;;;;39.95;31.90;;;28.30;37.30;;;;;;4744990;55;21068;-23
2021/08/19 10:54:40;;;;;;;38.38;27.40;;;28.30;37.50;;;;;;4752064;55;21061;-22
2021/08/19 10:59:58;;;;;;;23.00;18.70;;;28.30;37.50;;;;;;4757700;55;22407;-28
2021/08/19 11:04:59;;;;;;;20.52;15.52;;;28.20;36.40;;;;;;4738522;58;21507;-29
2021/08/19 11:10:01;;;;;;;18.77;15.60;;;28.20;35.80;;;;;;4753844;55;21017;-26
2021/08/19 11:15:03;;;;;;;18.33;16.35;;;28.20;35.90;;;;;;4754262;55;21171;-24
2021/08/19 11:20:25;;;;;;;29.87;24.98;;;28.20;36.40;;;;;;4765937;54;20982;-24
2021/08/19 11:25:30;;;;;;;30.02;24.92;;;28.20;36.40;;;;;;4792916;55;21029;-28
2021/08/19 11:30:36;;;;;;;28.20;23.08;;;28.30;36.90;;;;;;4740187;55;21036;-26
2021/08/19 11:35:39;;;;;;;27.02;23.40;;;28.30;36.60;;;;;;4754145;55;21101;-27
2021/08/19 11:40:42;;;;;;;24.90;22.00;;;28.30;36.60;;;;;;4740292;58;21330;-25
2021/08/19 11:45:42;;;;;;;26.50;22.50;;;28.30;36.70;;;;;;4776226;55;21135;-27
2021/08/19 11:50:52;;;;;;;25.42;21.92;;;28.40;36.80;;;;;;4750179;55;21065;-29
2021/08/19 11:55:56;;;;;;;24.05;20.67;;;28.40;36.90;;;;;;4741783;55;21471;-27
2021/08/19 12:01:08;;;;;;;23.77;20.90;;;28.40;37.00;;;;;;4806421;55;21103;-28
2021/08/19 12:06:19;;;;;;;24.00;20.45;;;28.40;37.10;;;;;;4765792;55;21077;-22
2021/08/19 12:11:29;;;;;;;23.15;20.58;;;28.40;37.10;;;;;;4750589;55;21097;-27
2021/08/19 12:16:31;;;;;;;22.92;20.37;;;28.50;37.30;;;;;;4752721;55;21013;-29
2021/08/19 12:21:33;;;;;;;25.90;19.75;;;28.40;37.30;;;;;;4761049;55;21001;-26
2021/08/19 12:26:33;;;;;;;21.95;19.37;;;28.50;37.40;;;;;;4740207;58;20993;-27
2021/08/19 12:31:51;;;;;;;23.58;20.20;;;28.50;37.40;;;;;;4761500;55;21085;-26
2021/08/19 12:36:52;;;;;;;17.73;15.40;;;28.50;37.50;;;;;;4782762;55;21494;-26
2021/08/19 12:42:10;;;;;;;21.02;15.68;;;28.50;36.40;;;;;;4759030;55;21061;-25
2021/08/19 12:47:11;;;;;;;34.20;26.70;;;28.40;36.30;;;;;;4740459;58;21069;-29
2021/08/19 12:52:24;;;;;;;49.17;35.47;;;28.50;36.00;;;;;;4740422;55;21072;-26
2021/08/19 12:57:34;;;;;;;40.35;31.58;;;28.50;36.60;;;;;;4745654;55;20994;-24
2021/08/19 13:02:35;;;;;;;53.53;41.42;;;28.50;36.70;;;;;;4762988;55;21109;-22
2021/08/19 13:07:37;;;;;;;92.78;69.18;;;28.50;36.40;;;;;;4800906;55;21001;-26
2021/08/19 13:12:38;;;;;;;75.40;57.08;;;28.50;36.70;;;;;;4749636;55;21017;-25
2021/08/19 13:17:39;;;;;;;59.08;42.80;;;28.50;36.90;;;;;;4798893;55;21038;-26
2021/08/19 13:22:42;;;;;;;47.85;35.58;;;28.50;36.80;;;;;;4749073;55;21113;-26
2021/08/19 13:27:43;;;;;;;33.70;26.65;;;28.50;36.10;;;;;;4741200;58;21025;-26
2021/08/19 13:32:45;;;;;;;37.42;28.40;;;28.50;36.20;;;;;;4776668;55;21017;-23
2021/08/19 13:37:46;;;;;;;50.80;36.90;;;28.60;36.30;;;;;;4779929;54;21471;-27
2021/08/19 13:42:47;;;;;;;55.17;39.05;;;28.50;36.30;;;;;;4741794;55;21077;-26
2021/08/19 13:47:48;;;;;;;38.47;27.00;;;28.50;36.50;;;;;;4739589;58;20990;-27
2021/08/19 13:52:48;;;;;;;39.45;28.27;;;28.50;36.10;;;;;;4744554;55;21526;-31
2021/08/19 13:57:51;;;;;;;37.65;27.52;;;28.50;36.50;;;;;;4740290;58;21050;-22
2021/08/19 14:02:52;;;;;;;32.10;25.35;;;28.50;36.60;;;;;;4770230;55;21602;-30
2021/08/19 14:07:54;;;;;;;33.33;23.98;;;28.60;37.00;;;;;;4745510;55;21566;-30
2021/08/19 14:12:55;;;;;;;34.92;24.67;;;28.60;37.30;;;;;;4749027;55;21499;-28
2021/08/19 14:17:56;;;;;;;27.70;22.65;;;28.60;38.20;;;;;;4750161;55;21097;-22
2021/08/19 14:22:56;;;;;;;29.75;22.70;;;28.60;37.70;;;;;;4762001;55;21029;-29
2021/08/19 14:27:57;;;;;;;25.98;21.60;;;28.60;38.00;;;;;;4742005;55;21017;-28
2021/08/19 14:32:58;;;;;;;22.92;20.40;;;28.70;38.30;;;;;;4749875;55;21073;-26
2021/08/19 14:38:01;;;;;;;26.25;20.90;;;28.70;38.50;;;;;;4742173;55;21097;-24
2021/08/19 14:43:02;;;;;;;23.60;20.00;;;28.70;38.70;;;;;;4747023;55;21590;-21
2021/08/19 14:48:05;;;;;;;24.95;19.55;;;28.70;38.90;;;;;;4768042;55;21045;-26
2021/08/19 14:53:06;;;;;;;22.17;18.73;;;28.70;39.20;;;;;;4775359;55;21014;-27
2021/08/19 14:58:07;;;;;;;23.90;20.05;;;28.80;39.40;;;;;;4747385;55;21110;-27
2021/08/19 15:03:08;;;;;;;22.83;18.75;;;28.80;39.60;;;;;;4755059;55;21029;-33
2021/08/19 15:08:09;;;;;;;24.00;19.12;;;28.70;39.70;;;;;;4793999;55;21017;-29
2021/08/19 15:13:10;;;;;;;23.75;18.08;;;28.70;39.70;;;;;;4766003;54;21502;-29
2021/08/19 15:18:11;;;;;;;21.00;18.73;;;28.70;39.70;;;;;;4760676;55;21121;-32
2021/08/19 15:23:13;;;;;;;21.45;18.27;;;28.60;39.70;;;;;;4752804;55;21518;-33
2021/08/19 15:28:17;;;;;;;22.35;18.27;;;28.60;39.80;;;;;;4745003;55;21073;-25
2021/08/19 15:33:18;;;;;;;21.30;17.65;;;28.60;39.80;;;;;;4761201;55;21598;-20
2021/08/19 15:38:19;;;;;;;19.67;17.55;;;28.60;39.80;;;;;;4747100;55;21077;-30
2021/08/19 15:43:20;;;;;;;20.20;17.05;;;28.60;39.80;;;;;;4760548;55;21069;-33
2021/08/19 15:48:20;;;;;;;20.20;16.27;;;28.50;39.80;;;;;;4782305;55;21009;-25
2021/08/19 15:53:21;;;;;;;18.95;16.45;;;28.50;39.80;;;;;;4748682;55;21443;-28
2021/08/19 15:58:23;;;;;;;19.45;16.58;;;28.50;39.90;;;;;;4753511;55;21093;-28
2021/08/19 16:03:24;;;;;;;18.42;15.85;;;28.50;39.80;;;;;;4755466;55;21551;-28
2021/08/19 16:08:25;;;;;;;20.88;16.90;;;28.50;39.90;;;;;;4754533;55;20990;-32
2021/08/19 16:13:26;;;;;;;19.33;16.80;;;28.50;39.90;;;;;;4789515;55;21152;-28
2021/08/19 16:18:27;;;;;;;18.20;15.65;;;28.50;39.90;;;;;;4762752;55;21527;-29
2021/08/19 16:23:29;;;;;;;17.45;15.30;;;28.50;39.90;;;;;;4748372;55;21088;-32
2021/08/19 16:28:30;;;;;;;17.25;15.43;;;28.50;39.90;;;;;;4758037;55;21006;-32
2021/08/19 16:33:31;;;;;;;19.42;16.20;;;28.50;40.00;;;;;;4754792;55;21058;-28
2021/08/19 16:38:32;;;;;;;19.10;16.23;;;28.40;39.90;;;;;;4746319;55;21009;-27
2021/08/19 16:43:36;;;;;;;17.15;15.35;;;28.40;39.80;;;;;;4765201;55;21101;-27
2021/08/19 16:48:37;;;;;;;16.30;14.60;;;28.50;40.00;;;;;;4765440;55;21030;-35
2021/08/19 16:53:38;;;;;;;16.62;14.75;;;28.50;40.00;;;;;;4747611;55;21503;-28
2021/08/19 16:58:40;;;;;;;17.00;15.00;;;28.50;40.10;;;;;;4741955;58;21021;-30
2021/08/19 17:03:41;;;;;;;17.37;14.35;;;28.40;39.90;;;;;;4740440;58;21096;-22
2021/08/19 17:08:41;;;;;;;15.43;13.77;;;28.40;40.50;;;;;;4757784;55;21057;-27
2021/08/19 17:13:42;;;;;;;16.12;14.38;;;28.40;39.90;;;;;;4756985;55;21100;-31
2021/08/19 17:18:43;;;;;;;15.13;13.57;;;28.40;40.00;;;;;;4742554;55;21162;-34
2021/08/19 17:23:44;;;;;;;16.52;14.38;;;28.40;40.00;;;;;;4754531;55;22053;-32
2021/08/19 17:28:45;;;;;;;16.23;14.07;;;28.40;40.00;;;;;;4740826;58;21013;-29
2021/08/19 17:33:46;;;;;;;18.40;14.10;;;28.40;40.00;;;;;;4757013;55;21554;-31
2021/08/19 17:38:47;;;;;;;16.02;14.43;;;28.40;40.00;;;;;;4747590;55;21479;-28
2021/08/19 17:43:48;;;;;;;15.52;13.85;;;28.40;40.00;;;;;;4765531;55;21086;-32
2021/08/19 17:48:52;;;;;;;15.45;13.40;;;28.40;40.00;;;;;;4763537;55;21021;-27
2021/08/19 17:53:53;;;;;;;15.10;13.35;;;28.50;40.10;;;;;;4760011;55;21041;-33
2021/08/19 17:58:53;;;;;;;16.08;13.65;;;28.40;40.00;;;;;;4740539;58;21133;-27
2021/08/19 18:03:55;;;;;;;14.18;12.50;;;28.40;40.00;;;;;;4740231;56;21029;-32
2021/08/19 18:08:55;;;;;;;15.55;13.73;;;28.40;40.00;;;;;;4752164;55;21563;-31
2021/08/19 18:13:56;;;;;;;14.87;13.27;;;28.40;40.10;;;;;;4791153;55;21089;-32
2021/08/19 18:18:58;;;;;;;13.95;12.45;;;28.40;40.00;;;;;;4748566;55;21025;-32
2021/08/19 18:23:59;;;;;;;15.23;12.40;;;28.40;40.00;;;;;;4750272;55;21061;-35
2021/08/19 18:29:01;;;;;;;13.70;12.15;;;28.40;40.00;;;;;;4807086;55;20989;-33
2021/08/19 18:34:02;;;;;;;14.55;12.52;;;28.40;40.10;;;;;;4753890;55;21531;-26
2021/08/19 18:39:03;;;;;;;15.05;13.45;;;28.40;40.10;;;;;;4755768;55;21050;-32
2021/08/19 18:44:05;;;;;;;14.23;12.73;;;28.40;40.00;;;;;;4754894;55;21053;-31
2021/08/19 18:49:05;;;;;;;14.45;12.85;;;28.40;40.00;;;;;;4766342;55;21069;-27
2021/08/19 18:54:07;;;;;;;14.52;13.00;;;28.40;40.10;;;;;;4749352;55;21084;-29
2021/08/19 18:59:08;;;;;;;14.40;12.77;;;28.40;40.10;;;;;;4769943;54;21002;-34
2021/08/19 19:04:11;;;;;;;15.13;12.95;;;28.40;40.10;;;;;;4739881;58;21477;-27
2021/08/19 19:09:11;;;;;;;13.75;12.15;;;28.40;40.10;;;;;;4741164;58;21001;-31
2021/08/19 19:14:12;;;;;;;15.32;12.25;;;28.40;40.10;;;;;;4801635;55;21566;-34
2021/08/19 19:19:13;;;;;;;13.62;11.80;;;28.40;40.20;;;;;;4740586;58;21139;-30
2021/08/19 19:24:14;;;;;;;13.02;11.63;;;28.40;40.20;;;;;;4740454;58;21057;-33
2021/08/19 19:29:15;;;;;;;13.18;11.85;;;28.40;40.20;;;;;;4743169;55;21433;-33
2021/08/19 19:34:16;;;;;;;12.85;11.55;;;28.40;40.20;;;;;;4757788;55;21013;-31
2021/08/19 19:39:17;;;;;;;15.13;11.57;;;28.40;40.20;;;;;;4754300;54;21025;-30
2021/08/19 19:44:17;;;;;;;12.93;11.23;;;28.40;40.30;;;;;;4740401;58;21105;-31
2021/08/19 19:49:18;;;;;;;12.75;11.45;;;28.40;40.20;;;;;;4755397;55;21006;-26
2021/08/19 19:54:19;;;;;;;12.27;10.95;;;28.40;40.30;;;;;;4763625;55;21507;-32
2021/08/19 19:59:20;;;;;;;12.15;10.85;;;28.40;40.20;;;;;;4755821;55;21538;-34
2021/08/19 20:04:20;;;;;;;14.02;11.48;;;28.40;40.20;;;;;;4745993;55;21049;-19
2021/08/19 20:09:21;;;;;;;13.13;11.15;;;28.30;40.20;;;;;;4764485;55;21080;-32
2021/08/19 20:14:22;;;;;;;12.05;10.75;;;28.40;40.40;;;;;;4757378;55;21029;-33
2021/08/19 20:19:26;;;;;;;11.85;10.48;;;28.30;40.30;;;;;;4748460;55;21037;-34
2021/08/19 20:24:27;;;;;;;13.75;11.07;;;28.30;40.50;;;;;;4753487;55;21022;-32
2021/08/19 20:29:28;;;;;;;12.50;11.20;;;28.30;40.40;;;;;;4792641;54;21606;-32
2021/08/19 20:34:29;;;;;;;12.18;10.80;;;28.30;40.30;;;;;;4771618;55;21108;-32
2021/08/19 20:39:30;;;;;;;11.57;10.10;;;28.30;41.00;;;;;;4751898;55;21084;-30
2021/08/19 20:44:31;;;;;;;12.37;10.60;;;28.30;40.40;;;;;;4739981;58;21033;-26
2021/08/19 20:49:32;;;;;;;12.60;10.68;;;28.30;40.40;;;;;;4744586;55;21026;-32
2021/08/19 20:54:32;;;;;;;10.90;9.77;;;28.30;40.50;;;;;;4754309;55;21479;-29
2021/08/19 20:59:33;;;;;;;11.00;9.05;;;28.30;40.40;;;;;;4778948;55;21056;-31
2021/08/19 21:04:34;;;;;;;10.93;9.80;;;28.30;40.50;;;;;;4744071;55;21048;-29
2021/08/19 21:09:35;;;;;;;11.38;10.07;;;28.30;40.50;;;;;;4758044;55;21595;-33
2021/08/19 21:14:36;;;;;;;11.02;9.63;;;28.30;40.60;;;;;;4784591;55;21158;-31
2021/08/19 21:19:37;;;;;;;10.75;9.70;;;28.30;41.20;;;;;;4746646;55;21571;-33
2021/08/19 21:24:38;;;;;;;10.10;9.10;;;28.30;40.50;;;;;;4744597;55;21025;-30
2021/08/19 21:29:39;;;;;;;10.40;9.35;;;28.30;40.60;;;;;;4754227;55;21013;-34
2021/08/19 21:34:39;;;;;;;11.00;8.70;;;28.30;40.50;;;;;;4804594;55;21092;-32
2021/08/19 21:39:40;;;;;;;9.82;8.43;;;28.30;40.60;;;;;;4740349;58;21518;-27
2021/08/19 21:44:41;;;;;;;10.45;9.25;;;28.30;40.60;;;;;;4754913;55;21093;-28
2021/08/19 21:49:42;;;;;;;10.32;9.23;;;28.30;40.70;;;;;;4782487;55;21073;-32
2021/08/19 21:54:43;;;;;;;10.23;8.75;;;28.30;40.70;;;;;;4752274;54;21029;-21
2021/08/19 21:59:44;;;;;;;9.38;8.43;;;28.30;40.60;;;;;;4741451;58;21041;-32
2021/08/19 22:04:44;;;;;;;9.88;8.50;;;28.30;40.70;;;;;;4797305;54;21543;-30
2021/08/19 22:09:48;;;;;;;10.07;8.65;;;28.30;40.70;;;;;;4748155;55;21629;-30
2021/08/19 22:14:49;;;;;;;10.50;7.90;;;28.30;40.80;;;;;;4766548;55;21077;-34
2021/08/19 22:19:50;;;;;;;10.48;8.27;;;28.30;40.80;;;;;;4740257;58;21180;-33
2021/08/19 22:24:51;;;;;;;9.82;8.35;;;28.30;40.80;;;;;;4743201;55;21017;-31
2021/08/19 22:29:53;;;;;;;9.30;7.95;;;28.30;40.80;;;;;;4745464;55;21049;-31
2021/08/19 22:34:54;;;;;;;8.57;7.78;;;28.30;40.80;;;;;;4777257;55;20985;-31
2021/08/19 22:39:54;;;;;;;8.82;7.80;;;28.30;40.80;;;;;;4740585;55;21029;-31
2021/08/19 22:44:55;;;;;;;8.05;7.20;;;28.30;40.80;;;;;;4812152;55;21526;-30
2021/08/19 22:49:56;;;;;;;8.13;7.30;;;28.30;40.80;;;;;;4754719;55;21486;-32
2021/08/19 22:54:57;;;;;;;8.35;7.47;;;28.30;40.80;;;;;;4752754;55;21097;-30
2021/08/19 22:59:58;;;;;;;8.43;7.10;;;28.30;40.80;;;;;;4755742;55;21474;-34
2021/08/19 23:04:58;;;;;;;10.18;7.35;;;28.30;40.90;;;;;;4742076;55;21104;-31
2021/08/19 23:09:59;;;;;;;7.78;6.82;;;28.30;41.00;;;;;;4774175;55;21088;-26
2021/08/19 23:15:00;;;;;;;8.13;6.87;;;28.30;40.90;;;;;;4764692;55;21052;-29
2021/08/19 23:20:01;;;;;;;7.65;6.95;;;28.30;41.00;;;;;;4784283;55;21041;-30
2021/08/19 23:25:05;;;;;;;7.53;6.68;;;28.30;40.90;;;;;;4740763;58;21037;-27
2021/08/19 23:30:07;;;;;;;7.97;7.18;;;28.30;41.10;;;;;;4760249;55;21058;-32
2021/08/19 23:35:08;;;;;;;7.75;6.87;;;28.30;41.00;;;;;;4771576;55;20989;-29
2021/08/19 23:40:10;;;;;;;7.32;6.62;;;28.30;41.00;;;;;;4758495;55;21037;-32
2021/08/19 23:45:11;;;;;;;7.82;6.45;;;28.30;41.00;;;;;;4746529;55;21082;-32
2021/08/19 23:50:14;;;;;;;8.02;6.55;;;28.20;41.00;;;;;;4751650;55;21077;-33
2021/08/19 23:55:15;;;;;;;6.68;6.00;;;28.20;41.10;;;;;;4747132;55;21040;-31
